sensor_id;sensor_type;location;lat;lon;timestamp;pressure;altitude;pressure_sealevel;temperature;humidity
74958;BME280;63741;42.624;26.276;2022-10-16T00:01:24;100414.84;;;10.80;58.81
74958;BME280;63741;42.624;26.276;2022-10-16T00:03:51;100406.47;;;10.73;59.72
74958;BME280;63741;42.624;26.276;2022-10-16T00:06:20;100397.28;;;10.79;59.29
74958;BME280;63741;42.624;26.276;2022-10-16T00:08:48;100403.28;;;10.68;59.79
74958;BME280;63741;42.624;26.276;2022-10-16T00:11:21;100409.25;;;10.84;59.88
74958;BME280;63741;42.624;26.276;2022-10-16T00:13:50;100406.13;;;10.65;59.93
74958;BME280;63741;42.624;26.276;2022-10-16T00:16:18;100417.66;;;10.64;59.58
74958;BME280;63741;42.624;26.276;2022-10-16T00:18:46;100414.34;;;10.60;59.35
74958;BME280;63741;42.624;26.276;2022-10-16T00:21:16;100412.41;;;10.50;60.10
74958;BME280;63741;42.624;26.276;2022-10-16T00:23:43;100413.03;;;10.53;60.26
74958;BME280;63741;42.624;26.276;2022-10-16T00:26:13;100405.94;;;10.68;60.02
74958;BME280;63741;42.624;26.276;2022-10-16T00:28:41;100406.13;;;10.65;59.42
74958;BME280;63741;42.624;26.276;2022-10-16T00:31:11;100407.50;;;10.71;59.95
74958;BME280;63741;42.624;26.276;2022-10-16T00:33:39;100406.22;;;10.63;59.69
74958;BME280;63741;42.624;26.276;2022-10-16T00:36:08;100405.94;;;10.41;60.69
74958;BME280;63741;42.624;26.276;2022-10-16T00:38:36;100414.28;;;10.75;59.51
74958;BME280;63741;42.624;26.276;2022-10-16T00:41:05;100411.09;;;10.70;59.25
74958;BME280;63741;42.624;26.276;2022-10-16T00:43:45;100407.16;;;10.90;59.53
74958;BME280;63741;42.624;26.276;2022-10-16T00:48:50;100413.84;;;10.41;60.83
74958;BME280;63741;42.624;26.276;2022-10-16T00:51:21;100410.31;;;10.13;59.83
74958;BME280;63741;42.624;26.276;2022-10-16T00:53:50;100421.06;;;10.25;60.53
74958;BME280;63741;42.624;26.276;2022-10-16T00:56:17;100415.31;;;10.18;59.30
74958;BME280;63741;42.624;26.276;2022-10-16T00:58:44;100419.72;;;10.18;59.74
74958;BME280;63741;42.624;26.276;2022-10-16T01:01:11;100416.44;;;10.14;60.25
74958;BME280;63741;42.624;26.276;2022-10-16T01:03:38;100420.22;;;10.10;60.70
74958;BME280;63741;42.624;26.276;2022-10-16T01:09:16;100420.41;;;9.64;62.50
74958;BME280;63741;42.624;26.276;2022-10-16T01:12:09;100426.06;;;9.86;61.44
74958;BME280;63741;42.624;26.276;2022-10-16T01:28:24;100430.75;;;10.38;60.34
74958;BME280;63741;42.624;26.276;2022-10-16T01:30:56;100436.75;;;10.28;60.64
74958;BME280;63741;42.624;26.276;2022-10-16T01:33:30;100445.16;;;10.61;59.80
74958;BME280;63741;42.624;26.276;2022-10-16T01:36:08;100446.50;;;10.54;59.91
74958;BME280;63741;42.624;26.276;2022-10-16T01:38:40;100446.25;;;10.45;60.26
74958;BME280;63741;42.624;26.276;2022-10-16T01:41:30;100447.91;;;10.60;59.02
74958;BME280;63741;42.624;26.276;2022-10-16T01:44:08;100449.16;;;10.54;59.88
74958;BME280;63741;42.624;26.276;2022-10-16T01:46:39;100447.06;;;10.59;59.11
74958;BME280;63741;42.624;26.276;2022-10-16T01:49:08;100453.22;;;10.46;59.77
74958;BME280;63741;42.624;26.276;2022-10-16T01:51:37;100446.38;;;10.15;60.17
74958;BME280;63741;42.624;26.276;2022-10-16T01:54:07;100451.66;;;10.29;59.54
74958;BME280;63741;42.624;26.276;2022-10-16T01:56:36;100455.13;;;10.44;59.69
74958;BME280;63741;42.624;26.276;2022-10-16T01:59:10;100451.19;;;10.36;60.09
74958;BME280;63741;42.624;26.276;2022-10-16T02:01:42;100461.00;;;10.06;61.42
74958;BME280;63741;42.624;26.276;2022-10-16T02:04:23;100452.59;;;10.13;60.57
74958;BME280;63741;42.624;26.276;2022-10-16T02:06:52;100458.53;;;10.03;60.19
74958;BME280;63741;42.624;26.276;2022-10-16T02:09:19;100454.84;;;10.20;59.93
74958;BME280;63741;42.624;26.276;2022-10-16T02:11:46;100457.50;;;10.34;59.58
74958;BME280;63741;42.624;26.276;2022-10-16T02:14:13;100454.66;;;10.23;60.33
74958;BME280;63741;42.624;26.276;2022-10-16T02:16:44;100460.91;;;10.36;59.87
74958;BME280;63741;42.624;26.276;2022-10-16T02:19:13;100449.66;;;10.18;60.10
74958;BME280;63741;42.624;26.276;2022-10-16T02:22:03;100451.06;;;9.95;61.45
74958;BME280;63741;42.624;26.276;2022-10-16T02:25:08;100455.03;;;10.17;60.11
74958;BME280;63741;42.624;26.276;2022-10-16T02:30:14;100459.66;;;9.99;60.75
74958;BME280;63741;42.624;26.276;2022-10-16T02:32:44;100464.78;;;10.30;60.13
74958;BME280;63741;42.624;26.276;2022-10-16T02:35:14;100469.09;;;10.17;61.10
74958;BME280;63741;42.624;26.276;2022-10-16T02:37:42;100478.22;;;10.27;60.83
74958;BME280;63741;42.624;26.276;2022-10-16T02:40:10;100480.44;;;10.19;60.77
74958;BME280;63741;42.624;26.276;2022-10-16T02:42:39;100491.75;;;10.21;60.03
74958;BME280;63741;42.624;26.276;2022-10-16T02:45:08;100480.75;;;10.00;61.18
74958;BME280;63741;42.624;26.276;2022-10-16T02:47:35;100489.03;;;9.94;60.72
74958;BME280;63741;42.624;26.276;2022-10-16T02:50:03;100481.00;;;9.81;61.42
74958;BME280;63741;42.624;26.276;2022-10-16T02:52:30;100487.78;;;10.00;60.57
74958;BME280;63741;42.624;26.276;2022-10-16T02:54:57;100496.94;;;10.08;60.65
74958;BME280;63741;42.624;26.276;2022-10-16T02:57:24;100488.19;;;9.94;61.44
74958;BME280;63741;42.624;26.276;2022-10-16T02:59:51;100498.72;;;9.65;62.85
74958;BME280;63741;42.624;26.276;2022-10-16T03:02:18;100506.69;;;9.49;62.76
74958;BME280;63741;42.624;26.276;2022-10-16T03:04:45;100506.44;;;9.68;62.01
74958;BME280;63741;42.624;26.276;2022-10-16T03:07:12;100505.13;;;9.61;62.59
74958;BME280;63741;42.624;26.276;2022-10-16T03:09:39;100518.91;;;9.66;62.27
74958;BME280;63741;42.624;26.276;2022-10-16T03:12:06;100518.03;;;9.51;63.07
74958;BME280;63741;42.624;26.276;2022-10-16T03:14:33;100521.19;;;9.72;62.47
74958;BME280;63741;42.624;26.276;2022-10-16T03:17:00;100521.97;;;9.74;62.54
74958;BME280;63741;42.624;26.276;2022-10-16T03:19:27;100519.03;;;9.79;62.46
74958;BME280;63741;42.624;26.276;2022-10-16T03:21:54;100521.84;;;9.61;62.26
74958;BME280;63741;42.624;26.276;2022-10-16T03:24:21;100517.88;;;9.69;62.02
74958;BME280;63741;42.624;26.276;2022-10-16T03:26:48;100522.22;;;9.55;62.84
74958;BME280;63741;42.624;26.276;2022-10-16T03:29:15;100523.91;;;9.56;63.35
74958;BME280;63741;42.624;26.276;2022-10-16T03:31:42;100525.97;;;9.51;63.02
74958;BME280;63741;42.624;26.276;2022-10-16T03:34:09;100518.34;;;9.31;63.27
74958;BME280;63741;42.624;26.276;2022-10-16T03:36:36;100530.34;;;9.36;62.17
74958;BME280;63741;42.624;26.276;2022-10-16T03:39:03;100533.38;;;9.45;62.70
74958;BME280;63741;42.624;26.276;2022-10-16T03:41:30;100532.94;;;9.52;62.10
74958;BME280;63741;42.624;26.276;2022-10-16T03:43:56;100536.84;;;9.75;61.24
74958;BME280;63741;42.624;26.276;2022-10-16T03:46:23;100540.53;;;9.73;61.37
74958;BME280;63741;42.624;26.276;2022-10-16T03:48:50;100546.03;;;9.54;61.99
74958;BME280;63741;42.624;26.276;2022-10-16T03:51:17;100550.91;;;9.76;61.72
74958;BME280;63741;42.624;26.276;2022-10-16T03:53:44;100545.50;;;9.63;61.99
74958;BME280;63741;42.624;26.276;2022-10-16T03:56:11;100547.28;;;9.62;62.64
74958;BME280;63741;42.624;26.276;2022-10-16T03:58:38;100542.88;;;9.77;61.64
74958;BME280;63741;42.624;26.276;2022-10-16T04:01:04;100544.34;;;9.53;62.92
74958;BME280;63741;42.624;26.276;2022-10-16T04:03:31;100532.28;;;9.63;62.26
74958;BME280;63741;42.624;26.276;2022-10-16T04:05:58;100542.00;;;9.62;61.84
74958;BME280;63741;42.624;26.276;2022-10-16T04:08:25;100536.81;;;9.47;62.94
74958;BME280;63741;42.624;26.276;2022-10-16T04:10:52;100545.00;;;9.42;63.21
74958;BME280;63741;42.624;26.276;2022-10-16T04:13:19;100539.91;;;9.53;62.60
74958;BME280;63741;42.624;26.276;2022-10-16T04:15:51;100534.94;;;9.63;62.24
74958;BME280;63741;42.624;26.276;2022-10-16T04:18:18;100529.25;;;9.55;62.65
74958;BME280;63741;42.624;26.276;2022-10-16T04:20:45;100529.75;;;9.31;62.85
74958;BME280;63741;42.624;26.276;2022-10-16T04:23:11;100550.03;;;9.61;63.03
74958;BME280;63741;42.624;26.276;2022-10-16T04:25:38;100543.19;;;9.43;63.25
74958;BME280;63741;42.624;26.276;2022-10-16T04:28:05;100540.47;;;9.28;62.90
74958;BME280;63741;42.624;26.276;2022-10-16T04:30:32;100548.00;;;9.50;62.88
74958;BME280;63741;42.624;26.276;2022-10-16T04:33:00;100535.03;;;9.31;63.19
74958;BME280;63741;42.624;26.276;2022-10-16T04:35:32;100540.25;;;9.17;63.99
74958;BME280;63741;42.624;26.276;2022-10-16T04:37:58;100541.75;;;9.37;62.83
74958;BME280;63741;42.624;26.276;2022-10-16T04:40:25;100553.38;;;9.49;63.34
74958;BME280;63741;42.624;26.276;2022-10-16T04:42:52;100558.53;;;9.36;62.72
74958;BME280;63741;42.624;26.276;2022-10-16T04:45:19;100563.31;;;9.59;62.42
74958;BME280;63741;42.624;26.276;2022-10-16T04:47:47;100568.81;;;9.56;62.67
74958;BME280;63741;42.624;26.276;2022-10-16T04:50:13;100564.06;;;9.47;62.77
74958;BME280;63741;42.624;26.276;2022-10-16T04:52:59;100575.50;;;9.62;62.34
74958;BME280;63741;42.624;26.276;2022-10-16T04:55:26;100571.41;;;9.86;61.24
74958;BME280;63741;42.624;26.276;2022-10-16T04:57:53;100582.03;;;10.01;61.47
74958;BME280;63741;42.624;26.276;2022-10-16T05:00:20;100571.06;;;10.21;61.08
74958;BME280;63741;42.624;26.276;2022-10-16T05:02:52;100573.69;;;10.37;60.26
74958;BME280;63741;42.624;26.276;2022-10-16T05:05:19;100576.09;;;10.69;59.25
74958;BME280;63741;42.624;26.276;2022-10-16T05:07:49;100584.38;;;10.91;58.31
74958;BME280;63741;42.624;26.276;2022-10-16T05:10:16;100582.72;;;11.17;57.80
74958;BME280;63741;42.624;26.276;2022-10-16T05:12:43;100583.06;;;11.25;57.50
74958;BME280;63741;42.624;26.276;2022-10-16T05:15:10;100585.44;;;11.43;56.99
74958;BME280;63741;42.624;26.276;2022-10-16T05:17:37;100590.97;;;11.79;56.18
74958;BME280;63741;42.624;26.276;2022-10-16T05:20:11;100594.31;;;11.69;56.81
74958;BME280;63741;42.624;26.276;2022-10-16T05:22:38;100590.56;;;11.85;56.65
74958;BME280;63741;42.624;26.276;2022-10-16T05:25:05;100590.28;;;11.63;57.75
74958;BME280;63741;42.624;26.276;2022-10-16T05:27:32;100597.28;;;11.64;57.58
74958;BME280;63741;42.624;26.276;2022-10-16T05:29:59;100589.56;;;11.74;57.04
74958;BME280;63741;42.624;26.276;2022-10-16T05:32:26;100606.84;;;12.19;55.48
74958;BME280;63741;42.624;26.276;2022-10-16T05:34:53;100597.28;;;12.17;55.70
74958;BME280;63741;42.624;26.276;2022-10-16T05:37:19;100605.34;;;12.53;55.32
74958;BME280;63741;42.624;26.276;2022-10-16T05:39:46;100605.44;;;12.64;54.48
74958;BME280;63741;42.624;26.276;2022-10-16T05:42:13;100606.28;;;12.65;54.66
74958;BME280;63741;42.624;26.276;2022-10-16T05:44:41;100602.97;;;12.87;53.96
74958;BME280;63741;42.624;26.276;2022-10-16T05:47:08;100601.78;;;13.28;53.67
74958;BME280;63741;42.624;26.276;2022-10-16T05:49:35;100607.50;;;13.58;52.78
74958;BME280;63741;42.624;26.276;2022-10-16T05:52:07;100609.47;;;13.68;53.09
74958;BME280;63741;42.624;26.276;2022-10-16T05:54:34;100615.06;;;13.76;52.49
74958;BME280;63741;42.624;26.276;2022-10-16T05:57:01;100607.59;;;13.81;52.36
74958;BME280;63741;42.624;26.276;2022-10-16T05:59:28;100623.13;;;14.09;51.71
74958;BME280;63741;42.624;26.276;2022-10-16T06:01:55;100622.34;;;14.20;52.13
74958;BME280;63741;42.624;26.276;2022-10-16T06:04:22;100613.19;;;14.47;51.65
74958;BME280;63741;42.624;26.276;2022-10-16T06:06:49;100620.84;;;14.51;51.09
74958;BME280;63741;42.624;26.276;2022-10-16T06:09:15;100620.56;;;14.77;51.21
74958;BME280;63741;42.624;26.276;2022-10-16T06:11:42;100619.09;;;14.95;50.20
74958;BME280;63741;42.624;26.276;2022-10-16T06:14:09;100619.47;;;14.90;50.44
74958;BME280;63741;42.624;26.276;2022-10-16T06:16:37;100625.41;;;15.05;50.76
74958;BME280;63741;42.624;26.276;2022-10-16T06:19:05;100620.97;;;15.27;50.42
74958;BME280;63741;42.624;26.276;2022-10-16T06:21:35;100622.22;;;15.23;49.52
74958;BME280;63741;42.624;26.276;2022-10-16T06:24:03;100627.19;;;15.27;48.91
74958;BME280;63741;42.624;26.276;2022-10-16T06:26:30;100629.28;;;15.67;48.33
74958;BME280;63741;42.624;26.276;2022-10-16T06:28:59;100635.31;;;15.58;48.75
74958;BME280;63741;42.624;26.276;2022-10-16T06:31:28;100637.94;;;15.80;48.68
74958;BME280;63741;42.624;26.276;2022-10-16T06:33:58;100638.19;;;15.98;47.87
74958;BME280;63741;42.624;26.276;2022-10-16T06:36:25;100631.34;;;16.16;46.72
74958;BME280;63741;42.624;26.276;2022-10-16T06:38:52;100640.94;;;16.50;44.95
74958;BME280;63741;42.624;26.276;2022-10-16T06:41:21;100646.97;;;16.73;44.49
74958;BME280;63741;42.624;26.276;2022-10-16T06:43:48;100645.66;;;16.67;45.18
74958;BME280;63741;42.624;26.276;2022-10-16T06:46:18;100646.88;;;16.53;44.73
74958;BME280;63741;42.624;26.276;2022-10-16T06:48:45;100647.56;;;16.76;44.13
74958;BME280;63741;42.624;26.276;2022-10-16T06:51:20;100655.94;;;16.92;42.94
74958;BME280;63741;42.624;26.276;2022-10-16T06:53:50;100661.22;;;17.23;42.60
74958;BME280;63741;42.624;26.276;2022-10-16T06:56:29;100667.75;;;17.50;40.92
74958;BME280;63741;42.624;26.276;2022-10-16T06:58:58;100664.13;;;17.70;41.65
74958;BME280;63741;42.624;26.276;2022-10-16T07:01:25;100665.66;;;17.53;41.98
74958;BME280;63741;42.624;26.276;2022-10-16T07:03:53;100656.53;;;17.56;41.32
74958;BME280;63741;42.624;26.276;2022-10-16T07:06:23;100654.00;;;17.64;40.64
74958;BME280;63741;42.624;26.276;2022-10-16T07:08:51;100656.09;;;17.51;41.58
74958;BME280;63741;42.624;26.276;2022-10-16T07:11:20;100656.78;;;17.53;42.08
74958;BME280;63741;42.624;26.276;2022-10-16T07:13:50;100666.00;;;17.79;39.55
74958;BME280;63741;42.624;26.276;2022-10-16T07:16:24;100668.97;;;17.86;39.51
74958;BME280;63741;42.624;26.276;2022-10-16T07:18:54;100663.03;;;18.02;39.00
74958;BME280;63741;42.624;26.276;2022-10-16T07:21:27;100673.75;;;18.02;38.28
74958;BME280;63741;42.624;26.276;2022-10-16T07:23:59;100669.53;;;17.80;37.73
74958;BME280;63741;42.624;26.276;2022-10-16T07:26:30;100666.28;;;17.76;39.56
74958;BME280;63741;42.624;26.276;2022-10-16T07:28:57;100667.69;;;17.90;37.73
74958;BME280;63741;42.624;26.276;2022-10-16T07:31:25;100668.97;;;18.15;37.16
74958;BME280;63741;42.624;26.276;2022-10-16T07:33:53;100663.00;;;18.40;35.71
74958;BME280;63741;42.624;26.276;2022-10-16T07:36:20;100667.53;;;18.40;35.86
74958;BME280;63741;42.624;26.276;2022-10-16T07:38:48;100664.09;;;18.48;34.66
74958;BME280;63741;42.624;26.276;2022-10-16T07:41:19;100664.06;;;18.77;35.18
74958;BME280;63741;42.624;26.276;2022-10-16T07:43:47;100662.25;;;19.05;34.49
74958;BME280;63741;42.624;26.276;2022-10-16T07:46:16;100668.38;;;19.25;33.56
74958;BME280;63741;42.624;26.276;2022-10-16T07:48:43;100664.91;;;19.32;33.32
74958;BME280;63741;42.624;26.276;2022-10-16T07:51:14;100670.09;;;19.16;33.03
74958;BME280;63741;42.624;26.276;2022-10-16T07:53:41;100665.81;;;18.96;33.32
74958;BME280;63741;42.624;26.276;2022-10-16T07:56:08;100666.31;;;19.36;33.33
74958;BME280;63741;42.624;26.276;2022-10-16T07:58:36;100668.22;;;19.72;32.68
74958;BME280;63741;42.624;26.276;2022-10-16T08:01:08;100655.47;;;19.56;31.95
74958;BME280;63741;42.624;26.276;2022-10-16T08:03:35;100666.25;;;19.18;33.04
74958;BME280;63741;42.624;26.276;2022-10-16T08:06:03;100656.94;;;19.68;31.80
74958;BME280;63741;42.624;26.276;2022-10-16T08:08:31;100655.25;;;19.85;32.39
74958;BME280;63741;42.624;26.276;2022-10-16T08:10:58;100652.38;;;20.04;31.23
74958;BME280;63741;42.624;26.276;2022-10-16T08:13:25;100651.34;;;19.79;31.84
74958;BME280;63741;42.624;26.276;2022-10-16T08:15:53;100646.44;;;19.75;32.26
74958;BME280;63741;42.624;26.276;2022-10-16T08:18:21;100649.00;;;20.20;32.85
74958;BME280;63741;42.624;26.276;2022-10-16T08:20:58;100648.63;;;20.59;32.74
74958;BME280;63741;42.624;26.276;2022-10-16T08:23:27;100653.03;;;20.94;32.53
74958;BME280;63741;42.624;26.276;2022-10-16T08:25:55;100652.72;;;21.05;31.32
74958;BME280;63741;42.624;26.276;2022-10-16T08:28:23;100647.53;;;21.04;29.88
74958;BME280;63741;42.624;26.276;2022-10-16T08:30:50;100664.28;;;21.32;29.66
74958;BME280;63741;42.624;26.276;2022-10-16T08:33:17;100648.03;;;21.50;30.51
74958;BME280;63741;42.624;26.276;2022-10-16T08:35:51;100666.88;;;21.58;30.50
74958;BME280;63741;42.624;26.276;2022-10-16T08:38:19;100655.53;;;21.38;29.25
74958;BME280;63741;42.624;26.276;2022-10-16T08:40:46;100658.78;;;21.50;30.25
74958;BME280;63741;42.624;26.276;2022-10-16T08:48:45;100666.00;;;20.99;29.70
74958;BME280;63741;42.624;26.276;2022-10-16T08:51:24;100659.84;;;21.23;30.68
74958;BME280;63741;42.624;26.276;2022-10-16T08:53:58;100652.28;;;21.18;29.30
74958;BME280;63741;42.624;26.276;2022-10-16T08:56:25;100655.41;;;21.56;29.35
74958;BME280;63741;42.624;26.276;2022-10-16T08:58:53;100650.41;;;21.69;29.82
74958;BME280;63741;42.624;26.276;2022-10-16T09:01:56;100646.56;;;21.80;29.24
74958;BME280;63741;42.624;26.276;2022-10-16T09:12:56;100651.63;;;22.07;27.95
74958;BME280;63741;42.624;26.276;2022-10-16T09:15:40;100645.19;;;22.00;27.80
74958;BME280;63741;42.624;26.276;2022-10-16T09:21:13;100649.28;;;22.20;29.30
74958;BME280;63741;42.624;26.276;2022-10-16T09:23:42;100656.28;;;22.62;26.26
74958;BME280;63741;42.624;26.276;2022-10-16T09:26:13;100659.16;;;21.87;26.80
74958;BME280;63741;42.624;26.276;2022-10-16T09:28:42;100655.81;;;21.93;26.43
74958;BME280;63741;42.624;26.276;2022-10-16T09:31:20;100652.28;;;22.09;27.05
74958;BME280;63741;42.624;26.276;2022-10-16T09:33:53;100654.84;;;22.19;26.57
74958;BME280;63741;42.624;26.276;2022-10-16T09:36:23;100644.53;;;22.39;25.29
74958;BME280;63741;42.624;26.276;2022-10-16T09:39:03;100648.25;;;22.46;27.45
74958;BME280;63741;42.624;26.276;2022-10-16T09:41:34;100650.88;;;22.70;26.95
74958;BME280;63741;42.624;26.276;2022-10-16T09:44:06;100658.44;;;22.75;25.68
74958;BME280;63741;42.624;26.276;2022-10-16T09:46:42;100650.66;;;22.97;26.82
74958;BME280;63741;42.624;26.276;2022-10-16T09:49:26;100646.50;;;23.17;25.21
74958;BME280;63741;42.624;26.276;2022-10-16T09:52:10;100649.72;;;22.57;24.02
74958;BME280;63741;42.624;26.276;2022-10-16T09:54:49;100648.38;;;22.61;26.14
74958;BME280;63741;42.624;26.276;2022-10-16T09:57:16;100641.19;;;22.37;26.30
74958;BME280;63741;42.624;26.276;2022-10-16T10:00:08;100627.69;;;21.63;26.34
74958;BME280;63741;42.624;26.276;2022-10-16T10:02:37;100631.91;;;22.07;26.86
74958;BME280;63741;42.624;26.276;2022-10-16T10:05:06;100626.00;;;22.44;26.23
74958;BME280;63741;42.624;26.276;2022-10-16T10:07:44;100636.50;;;22.86;27.58
74958;BME280;63741;42.624;26.276;2022-10-16T10:10:30;100622.47;;;23.30;26.68
74958;BME280;63741;42.624;26.276;2022-10-16T10:12:57;100624.72;;;23.27;25.78
74958;BME280;63741;42.624;26.276;2022-10-16T10:15:32;100615.56;;;22.97;25.05
74958;BME280;63741;42.624;26.276;2022-10-16T10:18:00;100617.44;;;22.88;24.63
74958;BME280;63741;42.624;26.276;2022-10-16T10:20:31;100619.63;;;23.01;25.89
74958;BME280;63741;42.624;26.276;2022-10-16T10:23:20;100619.13;;;23.28;27.34
74958;BME280;63741;42.624;26.276;2022-10-16T10:31:21;100610.56;;;23.16;24.49
74958;BME280;63741;42.624;26.276;2022-10-16T10:36:38;100598.34;;;22.50;23.73
74958;BME280;63741;42.624;26.276;2022-10-16T10:39:30;100599.84;;;22.53;23.58
74958;BME280;63741;42.624;26.276;2022-10-16T10:48:18;100587.00;;;22.63;24.51
74958;BME280;63741;42.624;26.276;2022-10-16T10:50:51;100578.44;;;23.30;23.26
74958;BME280;63741;42.624;26.276;2022-10-16T10:53:45;100587.44;;;23.76;24.32
74958;BME280;63741;42.624;26.276;2022-10-16T11:02:00;100569.06;;;23.49;23.58
74958;BME280;63741;42.624;26.276;2022-10-16T11:04:33;100568.97;;;23.34;23.06
74958;BME280;63741;42.624;26.276;2022-10-16T11:07:16;100569.72;;;24.11;23.98
74958;BME280;63741;42.624;26.276;2022-10-16T11:09:51;100571.56;;;24.49;24.25
74958;BME280;63741;42.624;26.276;2022-10-16T11:12:42;100566.19;;;24.26;23.42
74958;BME280;63741;42.624;26.276;2022-10-16T11:15:15;100575.69;;;24.36;23.10
74958;BME280;63741;42.624;26.276;2022-10-16T11:17:50;100577.78;;;24.49;23.23
74958;BME280;63741;42.624;26.276;2022-10-16T11:20:25;100568.47;;;24.66;22.73
74958;BME280;63741;42.624;26.276;2022-10-16T11:23:05;100576.56;;;23.84;21.97
74958;BME280;63741;42.624;26.276;2022-10-16T11:25:36;100579.50;;;23.98;23.28
74958;BME280;63741;42.624;26.276;2022-10-16T11:31:29;100581.09;;;24.95;22.96
74958;BME280;63741;42.624;26.276;2022-10-16T11:37:04;100577.56;;;24.36;23.40
74958;BME280;63741;42.624;26.276;2022-10-16T11:39:32;100580.31;;;24.65;23.20
74958;BME280;63741;42.624;26.276;2022-10-16T11:42:10;100589.13;;;25.04;23.02
74958;BME280;63741;42.624;26.276;2022-10-16T11:44:55;100585.31;;;24.98;21.43
74958;BME280;63741;42.624;26.276;2022-10-16T11:47:34;100588.03;;;24.68;21.47
74958;BME280;63741;42.624;26.276;2022-10-16T11:55:52;100580.66;;;24.92;22.29
74958;BME280;63741;42.624;26.276;2022-10-16T11:58:24;100578.91;;;24.84;22.29
74958;BME280;63741;42.624;26.276;2022-10-16T12:03:57;100582.38;;;24.78;22.22
74958;BME280;63741;42.624;26.276;2022-10-16T12:11:48;100589.38;;;24.58;21.44
74958;BME280;63741;42.624;26.276;2022-10-16T12:16:57;100582.38;;;24.78;22.62
74958;BME280;63741;42.624;26.276;2022-10-16T12:19:27;100589.19;;;24.74;22.25
74958;BME280;63741;42.624;26.276;2022-10-16T12:21:57;100579.47;;;24.80;21.07
74958;BME280;63741;42.624;26.276;2022-10-16T12:24:32;100582.81;;;24.96;21.90
74958;BME280;63741;42.624;26.276;2022-10-16T12:27:01;100573.72;;;25.04;21.77
74958;BME280;63741;42.624;26.276;2022-10-16T12:29:39;100583.16;;;24.93;21.49
74958;BME280;63741;42.624;26.276;2022-10-16T12:32:43;100588.63;;;25.30;21.95
74958;BME280;63741;42.624;26.276;2022-10-16T12:35:25;100594.41;;;25.27;21.82
74958;BME280;63741;42.624;26.276;2022-10-16T12:37:53;100594.72;;;25.17;21.12
74958;BME280;63741;42.624;26.276;2022-10-16T12:42:50;100597.16;;;25.12;21.63
74958;BME280;63741;42.624;26.276;2022-10-16T12:45:27;100607.56;;;24.79;21.66
74958;BME280;63741;42.624;26.276;2022-10-16T12:47:55;100600.16;;;24.73;22.97
74958;BME280;63741;42.624;26.276;2022-10-16T12:50:37;100609.50;;;24.85;22.97
74958;BME280;63741;42.624;26.276;2022-10-16T12:56:04;100615.50;;;24.65;22.95
74958;BME280;63741;42.624;26.276;2022-10-16T12:58:54;100614.25;;;24.68;21.77
74958;BME280;63741;42.624;26.276;2022-10-16T13:17:30;100611.72;;;24.37;22.30
74958;BME280;63741;42.624;26.276;2022-10-16T13:20:15;100598.19;;;23.84;23.25
74958;BME280;63741;42.624;26.276;2022-10-16T13:28:07;100603.66;;;23.76;22.64
74958;BME280;63741;42.624;26.276;2022-10-16T13:30:42;100600.16;;;23.67;22.82
74958;BME280;63741;42.624;26.276;2022-10-16T13:33:23;100604.53;;;23.68;22.92
74958;BME280;63741;42.624;26.276;2022-10-16T13:35:55;100607.75;;;23.64;22.98
74958;BME280;63741;42.624;26.276;2022-10-16T13:38:24;100600.25;;;23.51;24.30
74958;BME280;63741;42.624;26.276;2022-10-16T13:43:28;100621.66;;;23.53;23.40
74958;BME280;63741;42.624;26.276;2022-10-16T13:46:01;100622.97;;;23.65;23.33
74958;BME280;63741;42.624;26.276;2022-10-16T13:48:29;100620.63;;;23.62;22.62
74958;BME280;63741;42.624;26.276;2022-10-16T13:51:00;100620.56;;;23.70;23.01
74958;BME280;63741;42.624;26.276;2022-10-16T13:53:30;100623.38;;;23.54;23.14
74958;BME280;63741;42.624;26.276;2022-10-16T13:55:58;100629.69;;;23.38;23.46
74958;BME280;63741;42.624;26.276;2022-10-16T13:58:26;100634.56;;;23.42;23.67
74958;BME280;63741;42.624;26.276;2022-10-16T14:00:58;100627.13;;;23.44;23.61
74958;BME280;63741;42.624;26.276;2022-10-16T14:03:27;100627.94;;;23.22;23.95
74958;BME280;63741;42.624;26.276;2022-10-16T14:08:26;100632.03;;;23.10;23.85
74958;BME280;63741;42.624;26.276;2022-10-16T14:10:56;100637.47;;;23.02;23.00
74958;BME280;63741;42.624;26.276;2022-10-16T14:13:34;100645.66;;;22.77;23.86
74958;BME280;63741;42.624;26.276;2022-10-16T14:16:07;100646.47;;;22.78;24.59
74958;BME280;63741;42.624;26.276;2022-10-16T14:18:37;100644.66;;;22.70;24.93
74958;BME280;63741;42.624;26.276;2022-10-16T14:21:12;100643.94;;;22.76;24.31
74958;BME280;63741;42.624;26.276;2022-10-16T14:23:41;100644.25;;;22.98;24.85
74958;BME280;63741;42.624;26.276;2022-10-16T14:28:37;100654.31;;;21.99;25.61
74958;BME280;63741;42.624;26.276;2022-10-16T14:33:46;100648.91;;;21.91;25.22
74958;BME280;63741;42.624;26.276;2022-10-16T14:36:14;100642.00;;;21.96;25.80
74958;BME280;63741;42.624;26.276;2022-10-16T14:38:49;100650.09;;;21.88;25.93
74958;BME280;63741;42.624;26.276;2022-10-16T14:41:21;100653.28;;;21.92;25.63
74958;BME280;63741;42.624;26.276;2022-10-16T14:43:54;100650.88;;;21.56;27.00
74958;BME280;63741;42.624;26.276;2022-10-16T14:46:29;100652.50;;;21.33;27.33
74958;BME280;63741;42.624;26.276;2022-10-16T14:51:40;100660.16;;;21.19;28.35
74958;BME280;63741;42.624;26.276;2022-10-16T14:54:09;100660.34;;;21.18;27.69
74958;BME280;63741;42.624;26.276;2022-10-16T14:59:41;100669.19;;;21.02;28.29
74958;BME280;63741;42.624;26.276;2022-10-16T15:04:49;100674.00;;;20.90;29.99
74958;BME280;63741;42.624;26.276;2022-10-16T15:07:16;100676.13;;;20.79;29.56
74958;BME280;63741;42.624;26.276;2022-10-16T15:09:43;100674.41;;;20.69;29.45